Time;durP1;ratioP1;P1;durP2;ratioP2;P2;SDS_P1;SDS_P2;PMS_P1;PMS_P2;Temp;Humidity;BMP_temperature;BMP_pressure;BME280_temperature;BME280_humidity;BME280_pressure;Samples;Min_cycle;Max_cycle;Signal;HPM_P1;HPM_P2
2023/08/23 00:01:20;;;;;;;14.45;11.52;;;;;;;;;;5107511;28;20197;-66
2023/08/23 00:03:46;;;;;;;12.88;11.55;;;;;;;;;;5098783;27;20209;-64
2023/08/23 00:06:14;;;;;;;11.60;10.80;;;;;;;;;;5094151;27;20305;-65
2023/08/23 00:08:41;;;;;;;13.02;11.93;;;;;;;;;;5096849;27;20259;-66
2023/08/23 00:11:07;;;;;;;18.05;11.82;;;;;;;;;;5103627;27;20539;-66
2023/08/23 00:13:33;;;;;;;13.20;11.90;;;;;;;;;;5103890;28;20236;-65
2023/08/23 00:16:00;;;;;;;13.32;12.23;;;;;;;;;;5103788;28;20201;-66
2023/08/23 00:18:26;;;;;;;12.55;11.23;;;;;;;;;;5093449;27;20196;-65
2023/08/23 00:20:53;;;;;;;19.23;12.60;;;;;;;;;;5089946;27;20241;-65
2023/08/23 00:23:20;;;;;;;13.23;11.73;;;;;;;;;;5087103;27;20229;-65
2023/08/23 00:25:47;;;;;;;11.95;11.05;;;;;;;;;;5088948;27;20278;-64
2023/08/23 00:28:15;;;;;;;12.43;11.18;;;;;;;;;;5089715;28;20201;-65
2023/08/23 00:30:48;;;;;;;16.83;11.50;;;;;;;;;;5090987;27;20211;-65
2023/08/23 00:33:14;;;;;;;16.90;12.55;;;;;;;;;;5089651;28;20198;-65
2023/08/23 00:35:41;;;;;;;14.77;11.45;;;;;;;;;;5088543;28;20194;-65
2023/08/23 00:38:07;;;;;;;13.02;12.02;;;;;;;;;;5086062;27;20220;-65
2023/08/23 00:40:35;;;;;;;13.65;12.18;;;;;;;;;;5087587;28;20201;-66
2023/08/23 00:43:02;;;;;;;14.43;12.20;;;;;;;;;;5090516;27;20665;-65
2023/08/23 00:45:29;;;;;;;12.70;11.60;;;;;;;;;;5093109;27;20717;-66
2023/08/23 00:47:55;;;;;;;13.27;12.10;;;;;;;;;;5092386;28;20229;-66
2023/08/23 00:50:22;;;;;;;17.65;12.77;;;;;;;;;;5093889;28;20634;-66
2023/08/23 00:52:49;;;;;;;12.27;11.27;;;;;;;;;;5102969;28;20221;-66
2023/08/23 00:55:15;;;;;;;14.02;12.73;;;;;;;;;;5104557;27;20189;-66
2023/08/23 00:57:43;;;;;;;13.18;11.88;;;;;;;;;;5104297;28;20277;-65
2023/08/23 01:00:10;;;;;;;14.32;12.07;;;;;;;;;;5105605;27;20208;-66
2023/08/23 01:02:37;;;;;;;14.45;13.00;;;;;;;;;;5104569;27;20224;-66
2023/08/23 01:05:03;;;;;;;14.40;12.52;;;;;;;;;;5088467;28;20314;-66
2023/08/23 01:07:33;;;;;;;13.02;11.93;;;;;;;;;;5094460;28;20224;-64
2023/08/23 01:10:04;;;;;;;13.57;12.32;;;;;;;;;;5105103;27;20201;-64
2023/08/23 01:12:35;;;;;;;13.73;12.02;;;;;;;;;;5101900;28;20197;-66
2023/08/23 01:15:05;;;;;;;13.77;12.68;;;;;;;;;;5103794;27;20194;-65
2023/08/23 01:17:32;;;;;;;15.50;13.88;;;;;;;;;;5103566;27;20489;-64
2023/08/23 01:19:59;;;;;;;14.88;13.48;;;;;;;;;;5086976;28;20233;-66
2023/08/23 01:22:29;;;;;;;13.90;12.60;;;;;;;;;;5093936;27;20255;-63
2023/08/23 01:24:57;;;;;;;14.38;12.95;;;;;;;;;;5090892;27;20275;-64
2023/08/23 01:27:23;;;;;;;14.02;12.90;;;;;;;;;;5090915;27;20205;-64
2023/08/23 01:29:50;;;;;;;13.75;12.43;;;;;;;;;;5091074;27;20705;-64
2023/08/23 01:32:21;;;;;;;14.13;12.85;;;;;;;;;;5091581;28;20636;-64
2023/08/23 01:34:51;;;;;;;15.07;13.77;;;;;;;;;;5088346;27;20259;-64
2023/08/23 01:37:21;;;;;;;13.80;12.57;;;;;;;23.25;100.00;56616.03;5090113;27;20232;-64
2023/08/23 01:39:49;;;;;;;14.18;12.98;;;;;;;-142.91;100.00;56616.03;5088754;28;20262;-64
2023/08/23 01:42:17;;;;;;;13.82;12.43;;;;;;;-142.91;100.00;56616.03;5087073;28;20236;-64
2023/08/23 01:44:44;;;;;;;13.48;12.40;;;;;;;-142.91;100.00;56616.03;5091487;28;20275;-64
2023/08/23 01:47:10;;;;;;;13.20;12.23;;;;;;;;;;5089140;28;20228;-65
2023/08/23 01:49:37;;;;;;;15.48;12.88;;;;;;;23.25;100.00;56616.03;5090631;28;20240;-65
2023/08/23 01:52:04;;;;;;;14.88;13.55;;;;;;;-142.91;100.00;56616.03;5090720;28;20714;-65
2023/08/23 01:54:31;;;;;;;14.73;13.45;;;;;;;-142.91;100.00;56616.03;5090413;28;20207;-65
2023/08/23 01:56:57;;;;;;;14.18;12.93;;;;;;;;;;5092801;28;20282;-64
2023/08/23 01:59:25;;;;;;;14.65;13.23;;;;;;;;;;5088495;28;20216;-64
2023/08/23 02:01:51;;;;;;;14.95;13.40;;;;;;;;;;5087798;28;20197;-64
2023/08/23 02:04:17;;;;;;;14.23;12.93;;;;;;;;;;5101799;28;20197;-64
2023/08/23 02:06:44;;;;;;;13.07;11.98;;;;;;;23.25;100.00;56616.03;5104967;28;20224;-65
2023/08/23 02:09:11;;;;;;;14.25;12.95;;;;;;;;;;5103795;28;20201;-65
2023/08/23 02:11:37;;;;;;;12.55;11.55;;;;;;;;;;5103339;28;20208;-64
2023/08/23 02:14:04;;;;;;;13.93;12.57;;;;;;;;;;5104612;28;20192;-64
2023/08/23 02:16:32;;;;;;;13.43;12.32;;;;;;;23.25;100.00;56616.03;5103929;28;20254;-67
2023/08/23 02:18:58;;;;;;;14.70;12.52;;;;;;;;;;5103185;28;20630;-63
2023/08/23 02:21:25;;;;;;;14.65;12.70;;;;;;;;;;5102619;28;20212;-64
2023/08/23 02:23:51;;;;;;;16.40;11.88;;;;;;;;;;5101242;28;20657;-64
2023/08/23 02:26:18;;;;;;;13.20;12.02;;;;;;;;;;5102363;28;20213;-64
2023/08/23 02:28:44;;;;;;;12.60;11.35;;;;;;;;;;5102414;28;20292;-64
2023/08/23 02:31:11;;;;;;;12.95;11.52;;;;;;;;;;5102351;28;20246;-65
2023/08/23 02:33:38;;;;;;;12.75;11.68;;;;;;;;;;5102055;28;20300;-64
2023/08/23 02:36:05;;;;;;;12.73;11.63;;;;;;;;;;5102406;28;20730;-65
2023/08/23 02:38:31;;;;;;;13.20;11.98;;;;;;;;;;5101533;28;20225;-66
2023/08/23 02:40:58;;;;;;;11.93;10.93;;;;;;;;;;5088077;28;20233;-63
2023/08/23 02:43:24;;;;;;;12.90;11.63;;;;;;;;;;5086975;28;20814;-65
2023/08/23 02:45:50;;;;;;;13.77;12.00;;;;;;;;;;5090036;28;20234;-64
2023/08/23 02:48:17;;;;;;;20.95;12.48;;;;;;;;;;5090366;28;20206;-64
2023/08/23 02:50:45;;;;;;;13.27;12.07;;;;;;;;;;5094061;28;20274;-64
2023/08/23 02:53:12;;;;;;;12.77;11.57;;;;;;;23.25;100.00;56616.03;5101385;28;20217;-65
2023/08/23 02:55:38;;;;;;;17.55;12.55;;;;;;;;;;5101984;28;20204;-65
2023/08/23 02:58:05;;;;;;;12.80;11.68;;;;;;;;;;5104295;28;20674;-64
2023/08/23 03:00:32;;;;;;;12.30;11.25;;;;;;;;;;5103671;28;20326;-64
2023/08/23 03:02:58;;;;;;;15.13;11.02;;;;;;;;;;5102988;28;20254;-65
2023/08/23 03:05:24;;;;;;;12.93;11.75;;;;;;;;;;5108048;27;20221;-66
2023/08/23 03:07:52;;;;;;;12.77;11.73;;;;;;;;;;5106239;28;20254;-67
2023/08/23 03:10:19;;;;;;;12.50;11.50;;;;;;;;;;5106772;27;20258;-67
2023/08/23 03:12:45;;;;;;;13.48;12.27;;;;;;;;;;5108107;27;20258;-63
2023/08/23 03:15:12;;;;;;;13.95;11.75;;;;;;;;;;5108127;27;20224;-67
2023/08/23 03:17:38;;;;;;;17.85;13.02;;;;;;;;;;5106111;28;20767;-66
2023/08/23 03:20:05;;;;;;;12.40;11.45;;;;;;;;;;5108530;27;20282;-65
2023/08/23 03:22:32;;;;;;;14.95;12.18;;;;;;;;;;5104988;28;20197;-64
2023/08/23 03:24:59;;;;;;;12.93;11.60;;;;;;;;;;5096068;27;20205;-64
2023/08/23 03:27:26;;;;;;;16.85;11.80;;;;;;;-142.91;100.00;56616.03;5092164;27;20204;-64
2023/08/23 03:29:53;;;;;;;12.98;11.80;;;;;;;;;;5093574;27;20671;-64
2023/08/23 03:32:20;;;;;;;13.40;12.05;;;;;;;;;;5093222;28;20564;-64
2023/08/23 03:34:46;;;;;;;13.95;11.95;;;;;;;;;;5094948;27;20201;-64
2023/08/23 03:37:13;;;;;;;17.45;12.43;;;;;;;;;;5100882;28;20623;-65
2023/08/23 03:39:39;;;;;;;13.35;12.02;;;;;;;;;;5096130;27;20193;-65
2023/08/23 03:42:07;;;;;;;13.85;11.88;;;;;;;;;;5091022;27;20233;-65
2023/08/23 03:44:34;;;;;;;18.75;12.90;;;;;;;23.25;100.00;56616.03;5092707;27;20200;-64
2023/08/23 03:47:01;;;;;;;14.70;12.20;;;;;;;;;;5094905;27;20317;-66
2023/08/23 03:49:27;;;;;;;13.88;12.68;;;;;;;-142.91;100.00;56616.03;5095174;28;20225;-65
2023/08/23 03:51:54;;;;;;;17.48;13.95;;;;;;;;;;5093422;28;20212;-63
2023/08/23 03:54:21;;;;;;;14.07;12.57;;;;;;;;;;5091377;28;20204;-64
2023/08/23 03:56:48;;;;;;;14.68;13.15;;;;;;;-142.91;100.00;56616.03;5092146;27;20747;-65
2023/08/23 03:59:16;;;;;;;18.10;12.90;;;;;;;;;;5093784;27;20675;-66
2023/08/23 04:01:43;;;;;;;17.63;13.52;;;;;;;;;;5089988;28;20262;-65
2023/08/23 04:04:09;;;;;;;14.43;13.10;;;;;;;;;;5106528;27;20207;-64
2023/08/23 04:06:36;;;;;;;15.63;12.93;;;;;;;;;;5106941;27;20404;-64
2023/08/23 04:09:02;;;;;;;12.98;11.73;;;;;;;;;;5103609;28;20732;-65
2023/08/23 04:11:29;;;;;;;13.45;12.13;;;;;;;;;;5106639;27;20212;-65
2023/08/23 04:13:55;;;;;;;25.90;20.92;;;;;;;-142.91;100.00;56616.03;5104770;28;20209;-65
2023/08/23 04:16:23;;;;;;;26.13;20.05;;;;;;;-142.91;100.00;56616.03;5106542;27;20211;-65
2023/08/23 04:18:50;;;;;;;24.10;18.77;;;;;;;;;;5104258;28;20197;-65
2023/08/23 04:21:16;;;;;;;18.90;16.83;;;;;;;;;;5104003;27;20266;-64
2023/08/23 04:23:43;;;;;;;22.40;13.35;;;;;;;;;;5103172;27;20212;-65
2023/08/23 04:26:09;;;;;;;13.85;12.50;;;;;;;;;;5101606;27;20225;-65
2023/08/23 04:28:37;;;;;;;16.02;12.15;;;;;;;;;;5090246;28;20246;-64
2023/08/23 04:31:03;;;;;;;14.80;12.00;;;;;;;;;;5089712;27;20696;-64
2023/08/23 04:33:34;;;;;;;13.40;12.18;;;;;;;;;;5101360;27;20197;-64
2023/08/23 04:36:01;;;;;;;14.00;12.75;;;;;;;;;;5104879;27;20205;-64
2023/08/23 04:38:27;;;;;;;19.58;16.60;;;;;;;;;;5100329;27;20216;-65
2023/08/23 04:40:59;;;;;;;31.73;26.20;;;;;;;;;;5094415;27;20232;-64
2023/08/23 04:43:26;;;;;;;35.85;28.75;;;;;;;;;;5100060;27;20279;-64
2023/08/23 04:45:53;;;;;;;23.08;20.00;;;;;;;;;;5105928;27;20778;-65
2023/08/23 04:48:20;;;;;;;19.63;16.90;;;;;;;;;;5103072;27;20201;-65
2023/08/23 04:50:51;;;;;;;22.77;20.17;;;;;;;;;;5105708;27;20224;-65
2023/08/23 04:53:18;;;;;;;35.67;28.80;;;;;;;;;;5105841;27;20658;-64
2023/08/23 04:55:44;;;;;;;26.20;20.92;;;;;;;;;;5101656;27;20236;-65
2023/08/23 04:58:11;;;;;;;19.52;12.73;;;;;;;;;;5102852;28;20209;-64
2023/08/23 05:00:37;;;;;;;13.48;12.32;;;;;;;;;;5104771;28;20201;-64
2023/08/23 05:03:04;;;;;;;12.68;11.40;;;;;;;;;;5102675;28;20205;-64
2023/08/23 05:05:30;;;;;;;12.07;11.10;;;;;;;;;;5092791;27;20241;-65
2023/08/23 05:07:58;;;;;;;12.75;11.43;;;;;;;;;;5093898;28;20244;-65
2023/08/23 05:10:25;;;;;;;12.65;11.45;;;;;;;;;;5093490;27;20227;-65
2023/08/23 05:12:51;;;;;;;12.07;11.07;;;;;;;;;;5090561;27;20584;-65
2023/08/23 05:15:18;;;;;;;11.52;10.43;;;;;;;;;;5090340;27;20205;-65
2023/08/23 05:17:44;;;;;;;11.98;10.93;;;;;;;;;;5102372;27;20224;-65
2023/08/23 05:20:11;;;;;;;12.20;11.20;;;;;;;;;;5103946;28;20309;-65
2023/08/23 05:22:38;;;;;;;12.02;10.88;;;;;;;;;;5105385;28;20284;-65
2023/08/23 05:25:06;;;;;;;16.83;12.02;;;;;;;;;;5105745;27;20280;-65
2023/08/23 05:27:32;;;;;;;12.35;11.25;;;;;;;;;;5104075;28;20834;-65
2023/08/23 05:30:00;;;;;;;12.50;11.23;;;;;;;;;;5104480;28;20746;-66
2023/08/23 05:32:27;;;;;;;12.30;10.90;;;;;;;-142.91;100.00;56616.03;5103675;28;20212;-66
2023/08/23 05:34:54;;;;;;;12.52;11.43;;;;;;;;;;5104142;28;20257;-65
2023/08/23 05:37:20;;;;;;;11.95;10.82;;;;;;;;;;5101095;27;20683;-66
2023/08/23 05:39:47;;;;;;;13.95;12.30;;;;;;;;;;5088450;28;20667;-66
2023/08/23 05:42:15;;;;;;;12.40;11.15;;;;;;;;;;5093057;27;20620;-66
2023/08/23 05:44:41;;;;;;;17.33;11.73;;;;;;;;;;5092067;28;20224;-66
2023/08/23 05:47:08;;;;;;;13.30;11.98;;;;;;;;;;5091884;28;20221;-66
2023/08/23 05:49:34;;;;;;;13.73;12.43;;;;;;;;;;5088786;28;20205;-65
2023/08/23 05:52:00;;;;;;;13.20;12.20;;;;;;;;;;5088134;28;20310;-67
2023/08/23 05:54:27;;;;;;;14.38;12.52;;;;;;;;;;5092023;28;20232;-66
2023/08/23 05:56:53;;;;;;;13.82;12.32;;;;;;;;;;5089820;28;20201;-67
2023/08/23 05:59:21;;;;;;;13.98;12.57;;;;;;;;;;5091680;28;20205;-66
2023/08/23 06:01:48;;;;;;;17.20;13.38;;;;;;;;;;5089768;28;20198;-66
2023/08/23 06:04:14;;;;;;;12.95;11.85;;;;;;;;;;5094290;27;20621;-67
2023/08/23 06:06:40;;;;;;;13.05;11.88;;;;;;;;;;5093608;28;20647;-67
2023/08/23 06:09:07;;;;;;;12.80;11.45;;;;;;;;;;5092245;28;20243;-66
2023/08/23 06:11:33;;;;;;;13.73;12.50;;;;;;;;;;5097773;28;20197;-67
2023/08/23 06:14:00;;;;;;;13.98;12.70;;;;;;;;;;5105343;28;20201;-66
2023/08/23 06:16:28;;;;;;;13.23;12.13;;;;;;;;;;5104168;28;20226;-68
2023/08/23 06:18:54;;;;;;;16.55;11.77;;;;;;;;;;5094230;28;20250;-66
2023/08/23 06:21:20;;;;;;;14.88;13.27;;;;;;;;;;5088167;28;20209;-67
2023/08/23 06:23:47;;;;;;;17.88;13.90;;;;;;;;;;5087273;28;20225;-68
2023/08/23 06:26:14;;;;;;;16.35;11.95;;;;;;;;;;5088404;28;20328;-67
2023/08/23 06:28:40;;;;;;;14.85;11.80;;;;;;;;;;5093136;28;20255;-67
2023/08/23 06:31:07;;;;;;;13.68;11.65;;;;;;;;;;5103749;28;20586;-67
2023/08/23 06:33:34;;;;;;;14.13;11.73;;;;;;;;;;5101855;28;20266;-67
2023/08/23 06:36:01;;;;;;;11.80;10.70;;;;;;;;;;5103013;28;20584;-67
2023/08/23 06:38:27;;;;;;;11.95;11.15;;;;;;;;;;5104074;28;20236;-67
2023/08/23 06:40:54;;;;;;;11.18;10.38;;;;;;;;;;5107073;28;20670;-67
2023/08/23 06:43:20;;;;;;;11.73;10.55;;;;;;;;;;5106907;28;20224;-68
2023/08/23 06:45:47;;;;;;;12.30;11.23;;;;;;;;;;5108848;27;20205;-68
2023/08/23 06:48:13;;;;;;;12.70;11.55;;;;;;;;;;5108929;27;20228;-66
2023/08/23 06:50:41;;;;;;;11.63;10.52;;;;;;;;;;5109160;28;20195;-67
2023/08/23 06:53:07;;;;;;;11.57;10.45;;;;;;;;;;5107964;28;20239;-64
2023/08/23 06:55:39;;;;;;;12.75;11.32;;;;;;;;;;5108117;27;20241;-68
2023/08/23 06:58:05;;;;;;;12.35;10.50;;;;;;;;;;5104451;28;20235;-67
2023/08/23 07:00:31;;;;;;;14.57;11.60;;;;;;;;;;5108100;27;20280;-67
2023/08/23 07:02:58;;;;;;;11.07;10.00;;;;;;;;;;5105373;28;20204;-68
2023/08/23 07:05:24;;;;;;;12.20;10.48;;;;;;;;;;5095794;28;20269;-68
2023/08/23 07:07:52;;;;;;;11.70;10.57;;;;;;;;;;5103042;27;20983;-68
2023/08/23 07:10:19;;;;;;;18.05;10.48;;;;;;;;;;5108121;27;20686;-67
2023/08/23 07:12:45;;;;;;;12.38;11.20;;;;;;;;;;5107850;27;20590;-67
2023/08/23 07:15:12;;;;;;;12.73;11.07;;;;;;;;;;5107652;27;20197;-68
2023/08/23 07:17:38;;;;;;;16.83;11.65;;;;;;;;;;5095886;28;20209;-69
2023/08/23 07:20:06;;;;;;;13.43;10.15;;;;;;;;;;5094174;28;20201;-66
2023/08/23 07:22:32;;;;;;;72.57;64.65;;;;;;;;;;5099767;28;20208;-67
2023/08/23 07:25:00;;;;;;;25.85;20.38;;;;;;;;;;5108067;27;20249;-68
2023/08/23 07:27:26;;;;;;;16.30;13.88;;;;;;;;;;5106377;27;20224;-67
2023/08/23 07:29:53;;;;;;;13.32;12.13;;;;;;;;;;5108834;27;20208;-68
2023/08/23 07:32:19;;;;;;;14.50;11.38;;;;;;;;;;5107897;28;20265;-68
2023/08/23 07:34:46;;;;;;;12.52;11.30;;;;;;;;;;5107164;27;20262;-68
2023/08/23 07:37:12;;;;;;;17.05;12.35;;;;;;;;;;5105147;28;20246;-68
2023/08/23 07:39:39;;;;;;;17.45;13.98;;;;;;;;;;5107661;28;20735;-68
2023/08/23 07:42:07;;;;;;;11.73;10.90;;;;;;;;;;5097566;27;20684;-68
2023/08/23 07:44:34;;;;;;;18.02;12.93;;;;;;;;;;5093828;28;20293;-67
2023/08/23 07:47:00;;;;;;;15.60;11.43;;;;;;;;;;5091179;27;20216;-67
2023/08/23 07:49:27;;;;;;;16.25;13.40;;;;;;;;;;5092099;27;20660;-68
2023/08/23 07:51:53;;;;;;;15.10;11.68;;;;;;;;;;5092149;28;21361;-67
2023/08/23 07:54:20;;;;;;;12.80;11.65;;;;;;;;;;5094615;27;20705;-68
2023/08/23 07:56:46;;;;;;;18.23;14.40;;;;;;;;;;5091355;28;20208;-67
2023/08/23 07:59:14;;;;;;;13.43;10.57;;;;;;;;;;5091098;28;20670;-67
2023/08/23 08:01:41;;;;;;;12.95;11.80;;;;;;;;;;5088980;28;20675;-67
2023/08/23 08:04:07;;;;;;;12.70;11.52;;;;;;;;;;5091877;28;20216;-67
2023/08/23 08:06:33;;;;;;;14.63;11.90;;;;;;;;;;5093405;27;20647;-68
2023/08/23 08:09:00;;;;;;;15.98;11.02;;;;;;;;;;5104582;27;20204;-68
2023/08/23 08:11:26;;;;;;;19.42;11.15;;;;;;;;;;5106815;27;20197;-67
2023/08/23 08:13:53;;;;;;;13.90;10.88;;;;;;;;;;5107246;27;20580;-66
2023/08/23 08:16:21;;;;;;;12.25;11.23;;;;;;;;;;5106087;27;20220;-70
2023/08/23 08:18:47;;;;;;;16.85;10.98;;;;;;;;;;5095542;27;20533;-67
2023/08/23 08:21:14;;;;;;;15.30;10.88;;;;;;;;;;5090446;27;20231;-66
2023/08/23 08:23:40;;;;;;;12.45;11.48;;;;;;;;;;5093963;27;20208;-66
2023/08/23 08:26:07;;;;;;;20.58;11.40;;;;;;;;;;5092984;27;20225;-66
2023/08/23 08:28:33;;;;;;;12.90;10.63;;;;;;;;;;5090010;27;20329;-67
2023/08/23 08:31:00;;;;;;;16.02;10.80;;;;;;;;;;5091839;27;20250;-67
2023/08/23 08:33:28;;;;;;;12.75;11.15;;;;;;;;;;5092595;27;20201;-66
2023/08/23 08:35:54;;;;;;;14.23;9.60;;;;;;;;;;5094328;27;20219;-66
2023/08/23 08:38:22;;;;;;;11.10;10.00;;;;;;;;;;5091885;27;20279;-66
2023/08/23 08:40:49;;;;;;;14.23;9.20;;;;;;;;;;5094402;27;20209;-66
2023/08/23 08:43:16;;;;;;;12.38;9.10;;;;;;;;;;5091992;27;20227;-66
2023/08/23 08:45:43;;;;;;;10.10;9.32;;;;;;;;;;5091704;28;20291;-67
2023/08/23 08:48:09;;;;;;;12.60;9.43;;;;;;;;;;5090894;28;20244;-67
2023/08/23 08:50:37;;;;;;;10.85;9.82;;;;;;;;;;5088407;27;20198;-67
2023/08/23 08:53:06;;;;;;;13.35;10.05;;;;;;;;;;5090372;27;20225;-67
2023/08/23 08:55:33;;;;;;;15.73;9.80;;;;;;;;;;5090229;27;20235;-67
2023/08/23 08:58:00;;;;;;;10.27;9.18;;;;;;;;;;5094059;27;20221;-67
2023/08/23 09:00:27;;;;;;;10.57;7.93;;;;;;;;;;5089839;28;20216;-67
2023/08/23 09:02:54;;;;;;;10.27;8.48;;;;;;;;;;5091939;27;20277;-67
2023/08/23 09:05:21;;;;;;;9.15;8.35;;;;;;;;;;5090547;27;20673;-67
2023/08/23 09:07:50;;;;;;;13.00;7.75;;;;;;;;;;5092131;28;20249;-66
2023/08/23 09:10:16;;;;;;;11.57;8.68;;;;;;;;;;5092991;28;20225;-67
2023/08/23 09:12:42;;;;;;;9.25;8.07;;;;;;;;;;5091538;28;20201;-66
2023/08/23 09:15:09;;;;;;;9.52;8.70;;;;;;;;;;5097487;27;20220;-67
2023/08/23 09:17:36;;;;;;;8.98;8.45;;;;;;;;;;5105840;27;20695;-68
2023/08/23 09:20:05;;;;;;;8.90;8.40;;;;;;;;;;5102246;27;20225;-67
2023/08/23 09:22:32;;;;;;;9.07;8.23;;;;;;;;;;5089884;28;20198;-68
2023/08/23 09:25:00;;;;;;;9.77;9.05;;;;;;;;;;5091256;27;20213;-67
2023/08/23 09:27:27;;;;;;;8.00;7.45;;;;;;;;;;5090202;27;20715;-67
2023/08/23 09:29:53;;;;;;;8.00;7.40;;;;;;;;;;5088905;27;20248;-67
2023/08/23 09:32:20;;;;;;;8.63;7.95;;;;;;;;;;5089577;27;20703;-67
2023/08/23 09:34:47;;;;;;;7.65;7.15;;;;;;;;;;5093152;28;20614;-68
2023/08/23 09:37:13;;;;;;;7.75;7.10;;;;;;;;;;5092880;28;20200;-67
2023/08/23 09:39:40;;;;;;;41.60;34.08;;;;;;;;;;5097590;28;20201;-68
2023/08/23 09:42:13;;;;;;;8.50;7.88;;;;;;;;;;5104667;28;20233;-67
2023/08/23 09:44:40;;;;;;;7.80;7.18;;;;;;;;;;5104015;28;20296;-67
2023/08/23 09:47:10;;;;;;;7.85;7.03;;;;;;;;;;5103197;27;20204;-67
2023/08/23 09:49:38;;;;;;;8.13;7.47;;;;;;;;;;5101370;28;20670;-72
2023/08/23 09:52:05;;;;;;;7.82;7.13;;;;;;;;;;5101799;28;20252;-66
2023/08/23 09:54:36;;;;;;;7.60;6.53;;;;;;;;;;5105118;28;20225;-67
2023/08/23 09:57:02;;;;;;;8.20;7.50;;;;;;;;;;5104062;27;20578;-67
2023/08/23 09:59:30;;;;;;;7.28;6.57;;;;;;;;;;5104317;28;20208;-67
2023/08/23 10:01:57;;;;;;;7.88;7.28;;;;;;;;;;5104830;27;20197;-67
2023/08/23 10:04:24;;;;;;;8.00;7.40;;;;;;;;;;5102306;28;20205;-67
2023/08/23 10:06:52;;;;;;;8.50;6.93;;;;;;;;;;5095835;28;20207;-67
2023/08/23 10:09:18;;;;;;;7.35;6.72;;;;;;;;;;5087131;28;20253;-68
2023/08/23 10:11:45;;;;;;;7.22;6.72;;;;;;;;;;5093142;28;20197;-67
2023/08/23 10:14:12;;;;;;;6.60;6.10;;;;;;;;;;5088148;28;20241;-66
2023/08/23 10:16:40;;;;;;;7.05;6.25;;;;;;;;;;5086837;28;20237;-68
2023/08/23 10:19:07;;;;;;;7.35;6.95;;;;;;;;;;5089646;28;20198;-66
2023/08/23 10:21:33;;;;;;;6.50;5.90;;;;;;;;;;5084656;28;20201;-67
2023/08/23 10:24:03;;;;;;;7.10;6.30;;;;;;;;;;5087051;28;20209;-67
2023/08/23 10:26:29;;;;;;;7.15;6.50;;;;;;;;;;5089807;28;20299;-66
2023/08/23 10:28:56;;;;;;;5.65;5.25;;;;;;;;;;5090365;28;20229;-67
2023/08/23 10:31:23;;;;;;;6.18;5.78;;;;;;;;;;5088305;28;20205;-67
2023/08/23 10:33:55;;;;;;;6.45;6.10;;;;;;;;;;5088176;28;20685;-68
2023/08/23 10:36:22;;;;;;;7.78;7.25;;;;;;;;;;5089590;28;20265;-67
2023/08/23 10:38:48;;;;;;;9.23;6.70;;;;;;;;;;5098702;28;20204;-67
2023/08/23 10:41:17;;;;;;;6.82;6.38;;;;;;;;;;5102579;28;20212;-65
2023/08/23 10:43:43;;;;;;;6.18;5.68;;;;;;;;;;5103014;28;20228;-67
2023/08/23 10:46:10;;;;;;;8.27;7.53;;;;;;;;;;5102637;28;20228;-66
2023/08/23 10:48:36;;;;;;;6.70;6.20;;;;;;;;;;5096208;28;20244;-65
2023/08/23 10:51:04;;;;;;;6.80;6.28;;;;;;;;;;5100761;28;20201;-67
2023/08/23 10:53:31;;;;;;;7.80;6.88;;;;;;;;;;5090069;28;20290;-66
2023/08/23 10:56:01;;;;;;;7.50;6.80;;;;;;;;;;5089504;28;20206;-66
2023/08/23 10:58:27;;;;;;;6.97;6.68;;;;;;;;;;5088407;28;20226;-68
2023/08/23 11:00:55;;;;;;;6.80;6.30;;;;;;;;;;5090326;28;20233;-66
2023/08/23 11:03:22;;;;;;;5.90;5.50;;;;;;;;;;5089452;28;20201;-70
2023/08/23 11:05:49;;;;;;;5.80;5.50;;;;;;;;;;5088953;28;20678;-67
2023/08/23 11:08:17;;;;;;;7.25;6.57;;;;;;;;;;5089748;28;20252;-67
2023/08/23 11:10:43;;;;;;;8.23;6.88;;;;;;;;;;5090562;28;20201;-67
2023/08/23 11:13:10;;;;;;;8.38;7.03;;;;;;;;;;5089690;28;20263;-66
2023/08/23 11:15:36;;;;;;;10.93;7.10;;;;;;;;;;5089758;28;20236;-67
2023/08/23 11:18:03;;;;;;;7.93;7.03;;;;;;;;;;5089992;28;20197;-67
2023/08/23 11:20:30;;;;;;;6.88;6.28;;;;;;;;;;5090119;28;20255;-67
2023/08/23 11:22:56;;;;;;;7.75;7.15;;;;;;;;;;5090139;28;20278;-66
2023/08/23 11:25:24;;;;;;;14.57;11.73;;;;;;;;;;5094161;27;20236;-67
2023/08/23 11:27:51;;;;;;;38.60;25.27;;;;;;;;;;5095133;27;20252;-67
2023/08/23 11:30:20;;;;;;;34.03;23.92;;;;;;;;;;5091426;28;20642;-67
2023/08/23 11:32:47;;;;;;;25.85;20.65;;;;;;;;;;5093054;27;20201;-66
2023/08/23 11:35:13;;;;;;;60.58;40.47;;;;;;;;;;5093399;27;20213;-65
2023/08/23 11:37:40;;;;;;;43.08;30.50;;;;;;;;;;5092471;27;21002;-66
2023/08/23 11:40:10;;;;;;;44.10;28.42;;;;;;;;;;5089080;28;20226;-67
2023/08/23 11:42:39;;;;;;;26.23;22.08;;;;;;;;;;5096749;28;20801;-66
2023/08/23 11:45:06;;;;;;;35.10;28.48;;;;;;;;;;5106908;27;20774;-67
2023/08/23 11:47:34;;;;;;;24.38;18.80;;;;;;;;;;5101677;27;20950;-67
2023/08/23 11:50:00;;;;;;;16.77;14.95;;;;;;;;;;5093074;27;20274;-67
2023/08/23 11:52:28;;;;;;;18.70;15.35;;;;;;;;;;5096904;27;20280;-66
2023/08/23 11:54:55;;;;;;;15.57;12.32;;;;;;;;;;5106040;28;20305;-68
2023/08/23 11:57:22;;;;;;;15.32;11.88;;;;;;;;;;5104489;27;20213;-66
2023/08/23 11:59:49;;;;;;;11.40;9.90;;;;;;;;;;5094146;27;20207;-69
2023/08/23 12:02:16;;;;;;;12.35;10.18;;;;;;;;;;5099183;27;20291;-67
2023/08/23 12:04:43;;;;;;;10.38;8.65;;;;;;;;;;5105629;27;20211;-66
2023/08/23 12:07:09;;;;;;;15.18;9.25;;;;;;;;;;5100242;27;20627;-66
2023/08/23 12:09:36;;;;;;;13.77;12.35;;;;;;;;;;5093649;27;20256;-67
2023/08/23 12:12:03;;;;;;;17.35;15.07;;;;;;;;;;5103360;28;20202;-66
2023/08/23 12:14:29;;;;;;;22.45;16.67;;;;;;;;;;5091673;28;20206;-68
2023/08/23 12:16:57;;;;;;;9.18;8.20;;;;;;;;;;5092318;27;20255;-67
2023/08/23 12:19:24;;;;;;;8.43;7.82;;;;;;;;;;5091590;27;20756;-66
2023/08/23 12:21:51;;;;;;;9.82;8.32;;;;;;;;;;5090211;27;20221;-67
2023/08/23 12:24:17;;;;;;;8.65;7.53;;;;;;;;;;5091058;27;20687;-66
2023/08/23 12:26:44;;;;;;;8.57;7.60;;;;;;;;;;5103888;27;20221;-67
2023/08/23 12:29:10;;;;;;;7.78;7.13;;;;;;;;;;5088688;27;20245;-66
2023/08/23 12:31:37;;;;;;;9.15;8.23;;;;;;;;;;5091635;27;20239;-67
2023/08/23 12:34:05;;;;;;;7.75;7.25;;;;;;;;;;5093189;27;20263;-66
2023/08/23 12:36:31;;;;;;;8.27;7.57;;;;;;;;;;5095333;27;20208;-67
2023/08/23 12:38:58;;;;;;;11.23;7.25;;;;;;;;;;5099275;27;20274;-67
2023/08/23 12:41:25;;;;;;;8.40;7.25;;;;;;;;;;5102968;27;20638;-65
2023/08/23 12:43:51;;;;;;;7.38;6.75;;;;;;;;;;5106594;27;20204;-66
2023/08/23 12:46:18;;;;;;;6.82;6.22;;;;;;;;;;5106022;27;20671;-65
2023/08/23 12:48:44;;;;;;;6.85;6.05;;;;;;;;;;5104714;27;20779;-66
2023/08/23 12:51:13;;;;;;;6.13;5.78;;;;;;;;;;5105500;28;20253;-65
2023/08/23 12:53:39;;;;;;;6.78;6.38;;;;;;;;;;5104860;27;20714;-66
2023/08/23 12:56:06;;;;;;;7.18;6.47;;;;;;;;;;5106185;28;20225;-66
2023/08/23 12:58:32;;;;;;;6.95;6.32;;;;;;;;;;5105299;27;20251;-66
2023/08/23 13:00:59;;;;;;;6.88;6.20;;;;;;;;;;5104875;27;20205;-66
2023/08/23 13:03:25;;;;;;;6.40;6.07;;;;;;;;;;5092306;27;20255;-66
2023/08/23 13:05:51;;;;;;;7.60;5.63;;;;;;;;;;5095268;27;20262;-67
2023/08/23 13:08:19;;;;;;;5.85;5.45;;;;;;;;;;5093887;27;20198;-66
2023/08/23 13:10:46;;;;;;;6.50;6.07;;;;;;;;;;5102908;28;20668;-67
2023/08/23 13:13:12;;;;;;;7.22;6.63;;;;;;;;;;5104759;27;20200;-66
2023/08/23 13:15:39;;;;;;;6.18;5.68;;;;;;;;;;5106000;28;20200;-67
2023/08/23 13:18:06;;;;;;;7.00;6.30;;;;;;;;;;5106569;27;20208;-67
2023/08/23 13:20:32;;;;;;;6.38;5.82;;;;;;;;;;5105611;27;20205;-66
2023/08/23 13:22:59;;;;;;;6.82;6.47;;;;;;;;;;5093487;27;20377;-66
2023/08/23 13:25:26;;;;;;;6.63;6.13;;;;;;;;;;5090456;28;20225;-66
2023/08/23 13:27:53;;;;;;;7.65;6.95;;;;;;;;;;5089854;27;20246;-67
2023/08/23 13:30:19;;;;;;;8.02;7.50;;;;;;;;;;5099087;27;20228;-64
2023/08/23 13:32:46;;;;;;;7.57;6.93;;;;;;;;;;5093119;28;20262;-67
2023/08/23 13:35:12;;;;;;;7.65;6.28;;;;;;;;;;5090634;28;20201;-66
2023/08/23 13:37:39;;;;;;;7.30;6.80;;;;;;;;;;5089778;27;20193;-66
2023/08/23 13:40:06;;;;;;;8.48;6.28;;;;;;;;;;5092045;28;20644;-65
2023/08/23 13:42:34;;;;;;;6.40;6.10;;;;;;;;;;5089480;28;20239;-66
2023/08/23 13:45:01;;;;;;;7.88;7.28;;;;;;;;;;5091169;27;20675;-67
2023/08/23 13:47:27;;;;;;;7.90;7.40;;;;;;;;;;5090690;28;20673;-66
2023/08/23 13:49:54;;;;;;;7.90;7.20;;;;;;;;;;5087436;28;20778;-66
2023/08/23 13:52:20;;;;;;;7.50;6.88;;;;;;;;;;5090832;27;20250;-67
2023/08/23 13:54:46;;;;;;;7.60;6.88;;;;;;;;;;5089074;28;20561;-66
2023/08/23 13:57:13;;;;;;;8.27;7.65;;;;;;;;;;5088805;28;20259;-66
2023/08/23 13:59:42;;;;;;;7.50;6.95;;;;;;;;;;5089384;28;20193;-66
2023/08/23 14:02:08;;;;;;;7.35;6.80;;;;;;;;;;5090386;28;20644;-66
2023/08/23 14:04:36;;;;;;;7.35;6.95;;;;;;;;;;5090480;28;20254;-66
2023/08/23 14:07:03;;;;;;;7.40;6.88;;;;;;;;;;5093640;28;20193;-67
2023/08/23 14:09:30;;;;;;;5.72;5.43;;;;;;;;;;5104640;27;20278;-66